sensor_id;sensor_type;location;lat;lon;timestamp;temperature;humidity
921;DHT22;447;51.332;6.778;2023-05-14T00:01:35;19.90;97.00
921;DHT22;447;51.332;6.778;2023-05-14T00:04:02;19.90;97.00
921;DHT22;447;51.332;6.778;2023-05-14T00:06:28;19.90;97.10
921;DHT22;447;51.332;6.778;2023-05-14T00:08:54;19.90;97.10
921;DHT22;447;51.332;6.778;2023-05-14T00:11:20;19.90;97.10
921;DHT22;447;51.332;6.778;2023-05-14T00:13:46;19.90;97.10
921;DHT22;447;51.332;6.778;2023-05-14T00:16:12;19.80;97.10
921;DHT22;447;51.332;6.778;2023-05-14T00:18:38;19.80;97.10
921;DHT22;447;51.332;6.778;2023-05-14T00:21:04;19.80;97.10
921;DHT22;447;51.332;6.778;2023-05-14T00:23:30;19.80;97.10
921;DHT22;447;51.332;6.778;2023-05-14T00:25:56;19.80;97.20
921;DHT22;447;51.332;6.778;2023-05-14T00:28:22;19.80;97.20
921;DHT22;447;51.332;6.778;2023-05-14T00:30:48;19.80;97.20
921;DHT22;447;51.332;6.778;2023-05-14T00:33:14;19.70;97.20
921;DHT22;447;51.332;6.778;2023-05-14T00:35:40;19.70;97.10
921;DHT22;447;51.332;6.778;2023-05-14T00:38:06;19.70;97.10
921;DHT22;447;51.332;6.778;2023-05-14T00:40:33;19.70;97.10
921;DHT22;447;51.332;6.778;2023-05-14T00:42:59;19.70;97.10
921;DHT22;447;51.332;6.778;2023-05-14T00:45:25;19.70;97.10
921;DHT22;447;51.332;6.778;2023-05-14T00:47:52;19.60;97.00
921;DHT22;447;51.332;6.778;2023-05-14T00:50:19;19.60;97.10
921;DHT22;447;51.332;6.778;2023-05-14T00:52:46;19.60;97.10
921;DHT22;447;51.332;6.778;2023-05-14T00:55:13;19.60;97.10
921;DHT22;447;51.332;6.778;2023-05-14T00:57:41;19.50;97.00
921;DHT22;447;51.332;6.778;2023-05-14T01:00:08;19.50;97.00
921;DHT22;447;51.332;6.778;2023-05-14T01:02:34;19.50;97.00
921;DHT22;447;51.332;6.778;2023-05-14T01:05:00;19.50;97.00
921;DHT22;447;51.332;6.778;2023-05-14T01:10:19;19.50;97.00
921;DHT22;447;51.332;6.778;2023-05-14T01:15:27;19.40;96.80
921;DHT22;447;51.332;6.778;2023-05-14T01:18:02;19.50;96.90
921;DHT22;447;51.332;6.778;2023-05-14T01:20:29;19.40;96.90
921;DHT22;447;51.332;6.778;2023-05-14T01:22:56;19.40;96.90
921;DHT22;447;51.332;6.778;2023-05-14T01:25:22;19.40;96.90
921;DHT22;447;51.332;6.778;2023-05-14T01:31:07;19.30;96.90
921;DHT22;447;51.332;6.778;2023-05-14T01:33:35;19.30;96.80
921;DHT22;447;51.332;6.778;2023-05-14T01:36:01;19.30;96.80
921;DHT22;447;51.332;6.778;2023-05-14T01:38:32;19.30;96.80
921;DHT22;447;51.332;6.778;2023-05-14T01:40:59;19.30;96.80
921;DHT22;447;51.332;6.778;2023-05-14T01:43:26;19.30;96.80
921;DHT22;447;51.332;6.778;2023-05-14T01:45:52;19.20;96.80
921;DHT22;447;51.332;6.778;2023-05-14T01:48:20;19.20;96.70
921;DHT22;447;51.332;6.778;2023-05-14T01:50:46;19.20;96.70
921;DHT22;447;51.332;6.778;2023-05-14T01:53:12;19.20;96.70
921;DHT22;447;51.332;6.778;2023-05-14T01:55:38;19.10;96.70
921;DHT22;447;51.332;6.778;2023-05-14T01:58:04;19.10;96.60
921;DHT22;447;51.332;6.778;2023-05-14T02:00:35;19.10;96.60
921;DHT22;447;51.332;6.778;2023-05-14T02:03:01;19.10;96.60
921;DHT22;447;51.332;6.778;2023-05-14T02:05:27;19.10;96.60
921;DHT22;447;51.332;6.778;2023-05-14T02:07:53;19.10;96.60
921;DHT22;447;51.332;6.778;2023-05-14T02:10:19;19.10;96.60
921;DHT22;447;51.332;6.778;2023-05-14T02:12:48;19.00;96.50
921;DHT22;447;51.332;6.778;2023-05-14T02:15:14;19.00;96.50
921;DHT22;447;51.332;6.778;2023-05-14T02:17:40;19.00;96.60
921;DHT22;447;51.332;6.778;2023-05-14T02:20:06;19.00;96.70
921;DHT22;447;51.332;6.778;2023-05-14T02:22:41;19.00;96.50
921;DHT22;447;51.332;6.778;2023-05-14T02:25:10;19.00;96.50
921;DHT22;447;51.332;6.778;2023-05-14T02:27:36;18.90;96.50
921;DHT22;447;51.332;6.778;2023-05-14T02:30:03;18.90;96.40
921;DHT22;447;51.332;6.778;2023-05-14T02:32:29;18.90;96.40
921;DHT22;447;51.332;6.778;2023-05-14T02:34:55;18.90;96.40
921;DHT22;447;51.332;6.778;2023-05-14T02:37:21;18.90;96.40
921;DHT22;447;51.332;6.778;2023-05-14T02:39:46;18.90;96.40
921;DHT22;447;51.332;6.778;2023-05-14T02:42:14;18.80;96.30
921;DHT22;447;51.332;6.778;2023-05-14T02:44:40;18.80;96.30
921;DHT22;447;51.332;6.778;2023-05-14T02:47:06;18.80;96.30
921;DHT22;447;51.332;6.778;2023-05-14T02:49:32;18.80;96.30
921;DHT22;447;51.332;6.778;2023-05-14T02:51:58;18.80;96.40
921;DHT22;447;51.332;6.778;2023-05-14T02:54:25;18.70;96.20
921;DHT22;447;51.332;6.778;2023-05-14T02:56:51;18.70;96.20
921;DHT22;447;51.332;6.778;2023-05-14T02:59:17;18.70;96.20
921;DHT22;447;51.332;6.778;2023-05-14T03:01:43;18.70;96.20
921;DHT22;447;51.332;6.778;2023-05-14T03:04:09;18.70;96.20
921;DHT22;447;51.332;6.778;2023-05-14T03:06:35;18.70;96.20
921;DHT22;447;51.332;6.778;2023-05-14T03:09:01;18.60;96.10
921;DHT22;447;51.332;6.778;2023-05-14T03:11:27;18.60;96.20
921;DHT22;447;51.332;6.778;2023-05-14T03:13:53;18.60;96.10
921;DHT22;447;51.332;6.778;2023-05-14T03:16:19;18.60;96.10
921;DHT22;447;51.332;6.778;2023-05-14T03:18:45;18.60;96.10
921;DHT22;447;51.332;6.778;2023-05-14T03:21:11;18.60;96.10
921;DHT22;447;51.332;6.778;2023-05-14T03:23:37;18.50;96.10
921;DHT22;447;51.332;6.778;2023-05-14T03:26:03;18.50;96.00
921;DHT22;447;51.332;6.778;2023-05-14T03:28:30;18.50;96.10
921;DHT22;447;51.332;6.778;2023-05-14T03:30:55;18.50;96.00
921;DHT22;447;51.332;6.778;2023-05-14T03:33:21;18.50;96.00
921;DHT22;447;51.332;6.778;2023-05-14T03:35:48;18.40;96.00
921;DHT22;447;51.332;6.778;2023-05-14T03:38:14;18.40;95.90
921;DHT22;447;51.332;6.778;2023-05-14T03:40:40;18.40;95.90
921;DHT22;447;51.332;6.778;2023-05-14T03:43:06;18.40;95.90
921;DHT22;447;51.332;6.778;2023-05-14T03:45:32;18.40;95.90
921;DHT22;447;51.332;6.778;2023-05-14T03:47:58;18.40;95.90
921;DHT22;447;51.332;6.778;2023-05-14T03:50:25;18.40;95.90
921;DHT22;447;51.332;6.778;2023-05-14T03:52:51;18.30;95.80
921;DHT22;447;51.332;6.778;2023-05-14T03:55:21;18.30;95.80
921;DHT22;447;51.332;6.778;2023-05-14T03:57:48;18.30;95.80
921;DHT22;447;51.332;6.778;2023-05-14T04:00:14;18.30;95.70
921;DHT22;447;51.332;6.778;2023-05-14T04:02:43;18.30;95.70
921;DHT22;447;51.332;6.778;2023-05-14T04:05:10;18.20;95.60
921;DHT22;447;51.332;6.778;2023-05-14T04:07:36;18.20;95.70
921;DHT22;447;51.332;6.778;2023-05-14T04:10:03;18.20;95.60
921;DHT22;447;51.332;6.778;2023-05-14T04:12:48;18.20;95.60
921;DHT22;447;51.332;6.778;2023-05-14T04:15:31;18.20;95.60
921;DHT22;447;51.332;6.778;2023-05-14T04:17:57;18.20;95.60
921;DHT22;447;51.332;6.778;2023-05-14T04:20:23;18.10;95.60
921;DHT22;447;51.332;6.778;2023-05-14T04:22:49;18.10;95.60
921;DHT22;447;51.332;6.778;2023-05-14T04:25:15;18.10;95.50
921;DHT22;447;51.332;6.778;2023-05-14T04:27:43;18.10;95.50
921;DHT22;447;51.332;6.778;2023-05-14T04:30:09;18.10;95.40
921;DHT22;447;51.332;6.778;2023-05-14T04:32:35;18.10;95.40
921;DHT22;447;51.332;6.778;2023-05-14T04:35:03;18.10;95.40
921;DHT22;447;51.332;6.778;2023-05-14T04:37:29;18.00;95.40
921;DHT22;447;51.332;6.778;2023-05-14T04:39:56;18.00;95.40
921;DHT22;447;51.332;6.778;2023-05-14T04:42:22;18.00;95.30
921;DHT22;447;51.332;6.778;2023-05-14T04:44:48;18.00;95.30
921;DHT22;447;51.332;6.778;2023-05-14T04:47:14;18.00;95.30
921;DHT22;447;51.332;6.778;2023-05-14T04:49:40;18.00;95.30
921;DHT22;447;51.332;6.778;2023-05-14T04:52:08;17.90;95.30
921;DHT22;447;51.332;6.778;2023-05-14T04:54:34;17.90;95.20
921;DHT22;447;51.332;6.778;2023-05-14T04:57:00;17.90;95.30
921;DHT22;447;51.332;6.778;2023-05-14T04:59:31;17.90;95.60
921;DHT22;447;51.332;6.778;2023-05-14T05:01:57;17.90;95.20
921;DHT22;447;51.332;6.778;2023-05-14T05:04:23;17.90;95.30
921;DHT22;447;51.332;6.778;2023-05-14T05:06:49;17.90;95.30
921;DHT22;447;51.332;6.778;2023-05-14T05:09:16;17.90;95.30
921;DHT22;447;51.332;6.778;2023-05-14T05:11:43;17.80;95.20
921;DHT22;447;51.332;6.778;2023-05-14T05:14:09;17.80;95.30
921;DHT22;447;51.332;6.778;2023-05-14T05:16:35;17.80;95.30
921;DHT22;447;51.332;6.778;2023-05-14T05:19:01;17.80;95.40
921;DHT22;447;51.332;6.778;2023-05-14T05:21:27;17.80;95.40
921;DHT22;447;51.332;6.778;2023-05-14T05:23:53;17.80;95.40
921;DHT22;447;51.332;6.778;2023-05-14T05:26:18;17.80;95.50
921;DHT22;447;51.332;6.778;2023-05-14T05:28:46;17.70;95.50
921;DHT22;447;51.332;6.778;2023-05-14T05:31:12;17.70;95.50
921;DHT22;447;51.332;6.778;2023-05-14T05:33:39;17.70;95.50
921;DHT22;447;51.332;6.778;2023-05-14T05:36:04;17.70;95.90
921;DHT22;447;51.332;6.778;2023-05-14T05:38:30;17.70;95.60
921;DHT22;447;51.332;6.778;2023-05-14T05:40:56;17.70;95.60
921;DHT22;447;51.332;6.778;2023-05-14T05:43:22;17.70;95.70
921;DHT22;447;51.332;6.778;2023-05-14T05:45:48;17.70;95.70
921;DHT22;447;51.332;6.778;2023-05-14T05:48:14;17.70;95.70
921;DHT22;447;51.332;6.778;2023-05-14T05:50:40;17.70;95.80
921;DHT22;447;51.332;6.778;2023-05-14T05:53:07;17.70;95.80
921;DHT22;447;51.332;6.778;2023-05-14T05:55:33;17.60;95.80
921;DHT22;447;51.332;6.778;2023-05-14T05:57:59;17.60;95.80
921;DHT22;447;51.332;6.778;2023-05-14T06:00:25;17.60;95.80
921;DHT22;447;51.332;6.778;2023-05-14T06:02:51;17.60;95.90
921;DHT22;447;51.332;6.778;2023-05-14T06:05:17;17.60;95.90
921;DHT22;447;51.332;6.778;2023-05-14T06:07:44;17.60;95.90
921;DHT22;447;51.332;6.778;2023-05-14T06:10:10;17.60;96.00
921;DHT22;447;51.332;6.778;2023-05-14T06:12:36;17.60;96.00
921;DHT22;447;51.332;6.778;2023-05-14T06:15:03;17.60;96.00
921;DHT22;447;51.332;6.778;2023-05-14T06:17:32;17.60;96.00
921;DHT22;447;51.332;6.778;2023-05-14T06:20:01;17.60;96.10
921;DHT22;447;51.332;6.778;2023-05-14T06:22:27;17.60;96.10
921;DHT22;447;51.332;6.778;2023-05-14T06:24:53;17.60;96.20
921;DHT22;447;51.332;6.778;2023-05-14T06:27:19;17.60;96.20
921;DHT22;447;51.332;6.778;2023-05-14T06:29:47;17.50;96.20
921;DHT22;447;51.332;6.778;2023-05-14T06:32:13;17.50;96.20
921;DHT22;447;51.332;6.778;2023-05-14T06:34:41;17.50;96.20
921;DHT22;447;51.332;6.778;2023-05-14T06:37:07;17.50;96.20
921;DHT22;447;51.332;6.778;2023-05-14T06:39:36;17.50;96.30
921;DHT22;447;51.332;6.778;2023-05-14T06:42:03;17.50;96.20
921;DHT22;447;51.332;6.778;2023-05-14T06:44:30;17.50;96.20
921;DHT22;447;51.332;6.778;2023-05-14T06:46:56;17.50;96.30
921;DHT22;447;51.332;6.778;2023-05-14T06:49:22;17.50;96.30
921;DHT22;447;51.332;6.778;2023-05-14T06:51:48;17.50;96.30
921;DHT22;447;51.332;6.778;2023-05-14T06:54:14;17.50;96.30
921;DHT22;447;51.332;6.778;2023-05-14T06:56:40;17.50;96.30
921;DHT22;447;51.332;6.778;2023-05-14T06:59:06;17.50;96.30
921;DHT22;447;51.332;6.778;2023-05-14T07:01:32;17.50;96.30
921;DHT22;447;51.332;6.778;2023-05-14T07:03:58;17.50;96.40
921;DHT22;447;51.332;6.778;2023-05-14T07:06:24;17.50;96.40
921;DHT22;447;51.332;6.778;2023-05-14T07:08:50;17.60;96.50
921;DHT22;447;51.332;6.778;2023-05-14T07:11:18;17.60;96.50
921;DHT22;447;51.332;6.778;2023-05-14T07:13:44;17.60;96.60
921;DHT22;447;51.332;6.778;2023-05-14T07:16:10;17.60;96.70
921;DHT22;447;51.332;6.778;2023-05-14T07:18:36;17.60;96.70
921;DHT22;447;51.332;6.778;2023-05-14T07:21:02;17.60;96.70
921;DHT22;447;51.332;6.778;2023-05-14T07:23:32;17.60;96.80
921;DHT22;447;51.332;6.778;2023-05-14T07:26:02;17.60;96.90
921;DHT22;447;51.332;6.778;2023-05-14T07:28:28;17.60;96.90
921;DHT22;447;51.332;6.778;2023-05-14T07:30:54;17.60;96.90
921;DHT22;447;51.332;6.778;2023-05-14T07:33:20;17.60;96.90
921;DHT22;447;51.332;6.778;2023-05-14T07:35:46;17.60;97.00
921;DHT22;447;51.332;6.778;2023-05-14T07:38:12;17.60;97.00
921;DHT22;447;51.332;6.778;2023-05-14T07:40:38;17.70;97.10
921;DHT22;447;51.332;6.778;2023-05-14T07:43:04;17.70;97.10
921;DHT22;447;51.332;6.778;2023-05-14T07:45:30;17.70;97.10
921;DHT22;447;51.332;6.778;2023-05-14T07:47:56;17.70;97.20
921;DHT22;447;51.332;6.778;2023-05-14T07:50:22;17.70;97.20
921;DHT22;447;51.332;6.778;2023-05-14T07:52:48;17.70;97.20
921;DHT22;447;51.332;6.778;2023-05-14T07:55:15;17.70;97.30
921;DHT22;447;51.332;6.778;2023-05-14T07:57:41;17.80;97.30
921;DHT22;447;51.332;6.778;2023-05-14T08:00:07;17.80;97.30
921;DHT22;447;51.332;6.778;2023-05-14T08:02:40;17.80;97.20
921;DHT22;447;51.332;6.778;2023-05-14T08:05:07;17.80;97.30
921;DHT22;447;51.332;6.778;2023-05-14T08:07:33;17.80;97.20
921;DHT22;447;51.332;6.778;2023-05-14T08:09:59;17.80;97.20
921;DHT22;447;51.332;6.778;2023-05-14T08:12:25;17.90;97.30
921;DHT22;447;51.332;6.778;2023-05-14T08:14:52;17.90;97.30
921;DHT22;447;51.332;6.778;2023-05-14T08:17:20;17.90;97.30
921;DHT22;447;51.332;6.778;2023-05-14T08:19:45;17.90;97.30
921;DHT22;447;51.332;6.778;2023-05-14T08:22:11;17.90;97.40
921;DHT22;447;51.332;6.778;2023-05-14T08:24:38;17.90;97.40
921;DHT22;447;51.332;6.778;2023-05-14T08:27:04;18.00;97.40
921;DHT22;447;51.332;6.778;2023-05-14T08:29:29;18.00;97.40
921;DHT22;447;51.332;6.778;2023-05-14T08:31:56;18.00;97.40
921;DHT22;447;51.332;6.778;2023-05-14T08:34:22;18.00;97.40
921;DHT22;447;51.332;6.778;2023-05-14T08:36:48;18.00;97.30
921;DHT22;447;51.332;6.778;2023-05-14T08:39:16;18.10;97.40
921;DHT22;447;51.332;6.778;2023-05-14T08:41:42;18.10;97.40
921;DHT22;447;51.332;6.778;2023-05-14T08:44:12;18.10;97.40
921;DHT22;447;51.332;6.778;2023-05-14T08:46:39;18.10;97.50
921;DHT22;447;51.332;6.778;2023-05-14T08:49:40;18.20;97.50
921;DHT22;447;51.332;6.778;2023-05-14T08:52:08;18.20;97.50
921;DHT22;447;51.332;6.778;2023-05-14T08:54:34;18.20;97.60
921;DHT22;447;51.332;6.778;2023-05-14T08:57:01;18.30;97.70
921;DHT22;447;51.332;6.778;2023-05-14T08:59:31;18.30;97.70
921;DHT22;447;51.332;6.778;2023-05-14T09:02:00;18.30;97.70
921;DHT22;447;51.332;6.778;2023-05-14T09:04:26;18.30;97.70
921;DHT22;447;51.332;6.778;2023-05-14T09:06:54;18.40;97.80
921;DHT22;447;51.332;6.778;2023-05-14T09:09:22;18.40;97.80
921;DHT22;447;51.332;6.778;2023-05-14T09:11:53;18.50;97.80
921;DHT22;447;51.332;6.778;2023-05-14T09:14:19;18.50;97.80
921;DHT22;447;51.332;6.778;2023-05-14T09:16:47;18.50;97.80
921;DHT22;447;51.332;6.778;2023-05-14T09:19:13;18.50;97.80
921;DHT22;447;51.332;6.778;2023-05-14T09:21:40;18.60;97.90
921;DHT22;447;51.332;6.778;2023-05-14T09:24:21;18.60;97.80
921;DHT22;447;51.332;6.778;2023-05-14T09:26:52;18.60;97.80
921;DHT22;447;51.332;6.778;2023-05-14T09:29:23;18.70;97.80
921;DHT22;447;51.332;6.778;2023-05-14T09:31:51;18.80;97.90
921;DHT22;447;51.332;6.778;2023-05-14T09:34:30;18.80;97.90
921;DHT22;447;51.332;6.778;2023-05-14T09:37:05;18.80;97.80
921;DHT22;447;51.332;6.778;2023-05-14T09:39:32;18.90;97.80
921;DHT22;447;51.332;6.778;2023-05-14T09:41:58;18.90;97.70
921;DHT22;447;51.332;6.778;2023-05-14T09:44:24;19.00;97.70
921;DHT22;447;51.332;6.778;2023-05-14T09:46:53;19.00;97.60
921;DHT22;447;51.332;6.778;2023-05-14T09:49:20;19.00;97.50
921;DHT22;447;51.332;6.778;2023-05-14T09:51:47;19.00;97.40
921;DHT22;447;51.332;6.778;2023-05-14T09:54:13;19.10;97.30
921;DHT22;447;51.332;6.778;2023-05-14T09:56:39;19.10;97.20
921;DHT22;447;51.332;6.778;2023-05-14T09:59:05;19.20;97.00
921;DHT22;447;51.332;6.778;2023-05-14T10:01:32;19.20;96.80
921;DHT22;447;51.332;6.778;2023-05-14T10:03:58;19.30;96.80
921;DHT22;447;51.332;6.778;2023-05-14T10:06:30;19.30;96.80
921;DHT22;447;51.332;6.778;2023-05-14T10:09:00;19.40;96.80
921;DHT22;447;51.332;6.778;2023-05-14T10:11:30;19.40;96.80
921;DHT22;447;51.332;6.778;2023-05-14T10:14:02;19.40;96.80
921;DHT22;447;51.332;6.778;2023-05-14T10:16:45;19.50;96.80
921;DHT22;447;51.332;6.778;2023-05-14T10:19:27;19.50;96.90
921;DHT22;447;51.332;6.778;2023-05-14T10:22:03;19.60;96.80
921;DHT22;447;51.332;6.778;2023-05-14T10:24:29;19.60;96.80
921;DHT22;447;51.332;6.778;2023-05-14T10:26:56;19.60;96.70
921;DHT22;447;51.332;6.778;2023-05-14T10:29:36;19.60;96.60
921;DHT22;447;51.332;6.778;2023-05-14T10:32:07;19.70;96.60
921;DHT22;447;51.332;6.778;2023-05-14T10:34:41;19.70;96.50
921;DHT22;447;51.332;6.778;2023-05-14T10:45:07;19.90;96.30
921;DHT22;447;51.332;6.778;2023-05-14T10:47:44;19.90;96.00
921;DHT22;447;51.332;6.778;2023-05-14T10:50:12;20.00;95.90
921;DHT22;447;51.332;6.778;2023-05-14T10:52:41;20.00;95.60
921;DHT22;447;51.332;6.778;2023-05-14T10:55:08;20.00;95.50
921;DHT22;447;51.332;6.778;2023-05-14T10:57:39;20.00;95.40
921;DHT22;447;51.332;6.778;2023-05-14T11:00:07;20.10;95.40
921;DHT22;447;51.332;6.778;2023-05-14T11:05:11;20.20;95.10
921;DHT22;447;51.332;6.778;2023-05-14T11:07:46;20.20;95.00
921;DHT22;447;51.332;6.778;2023-05-14T11:10:17;20.20;95.00
921;DHT22;447;51.332;6.778;2023-05-14T11:12:46;20.30;94.90
921;DHT22;447;51.332;6.778;2023-05-14T11:15:17;20.30;94.60
921;DHT22;447;51.332;6.778;2023-05-14T11:17:44;20.30;94.40
921;DHT22;447;51.332;6.778;2023-05-14T11:20:13;20.40;93.90
921;DHT22;447;51.332;6.778;2023-05-14T11:22:43;20.40;93.80
921;DHT22;447;51.332;6.778;2023-05-14T11:25:10;20.40;93.70
921;DHT22;447;51.332;6.778;2023-05-14T11:27:40;20.40;93.70
921;DHT22;447;51.332;6.778;2023-05-14T11:32:38;20.50;93.60
921;DHT22;447;51.332;6.778;2023-05-14T11:35:04;20.50;93.20
921;DHT22;447;51.332;6.778;2023-05-14T11:37:30;20.50;92.90
921;DHT22;447;51.332;6.778;2023-05-14T11:39:59;20.60;92.90
921;DHT22;447;51.332;6.778;2023-05-14T11:42:25;20.60;92.80
921;DHT22;447;51.332;6.778;2023-05-14T11:44:52;20.60;92.60
921;DHT22;447;51.332;6.778;2023-05-14T11:47:21;20.60;92.60
921;DHT22;447;51.332;6.778;2023-05-14T11:49:48;20.70;92.50
921;DHT22;447;51.332;6.778;2023-05-14T11:52:15;20.70;92.60
921;DHT22;447;51.332;6.778;2023-05-14T11:54:46;20.70;92.40
921;DHT22;447;51.332;6.778;2023-05-14T11:57:21;20.70;92.20
921;DHT22;447;51.332;6.778;2023-05-14T11:59:48;20.80;92.20
921;DHT22;447;51.332;6.778;2023-05-14T12:02:19;20.80;92.20
921;DHT22;447;51.332;6.778;2023-05-14T12:04:49;20.80;92.00
921;DHT22;447;51.332;6.778;2023-05-14T12:07:20;20.90;91.90
921;DHT22;447;51.332;6.778;2023-05-14T12:09:47;20.90;91.90
921;DHT22;447;51.332;6.778;2023-05-14T12:12:17;20.90;92.00
921;DHT22;447;51.332;6.778;2023-05-14T12:14:43;20.90;91.90
921;DHT22;447;51.332;6.778;2023-05-14T12:17:22;21.00;92.10
921;DHT22;447;51.332;6.778;2023-05-14T12:19:49;21.00;92.00
921;DHT22;447;51.332;6.778;2023-05-14T12:22:18;21.00;92.00
921;DHT22;447;51.332;6.778;2023-05-14T12:25:00;21.00;92.10
921;DHT22;447;51.332;6.778;2023-05-14T12:27:27;21.00;92.00
921;DHT22;447;51.332;6.778;2023-05-14T12:30:01;21.10;92.00
921;DHT22;447;51.332;6.778;2023-05-14T12:32:33;21.10;92.10
921;DHT22;447;51.332;6.778;2023-05-14T12:34:59;21.10;92.10
921;DHT22;447;51.332;6.778;2023-05-14T12:37:26;21.10;91.80
921;DHT22;447;51.332;6.778;2023-05-14T12:39:57;21.20;91.40
921;DHT22;447;51.332;6.778;2023-05-14T12:42:23;21.20;91.40
921;DHT22;447;51.332;6.778;2023-05-14T12:44:48;21.20;91.50
921;DHT22;447;51.332;6.778;2023-05-14T12:47:14;21.20;91.50
921;DHT22;447;51.332;6.778;2023-05-14T12:49:41;21.30;91.40
921;DHT22;447;51.332;6.778;2023-05-14T12:52:07;21.30;91.40
921;DHT22;447;51.332;6.778;2023-05-14T12:54:33;21.30;91.40
921;DHT22;447;51.332;6.778;2023-05-14T12:56:59;21.30;91.30
921;DHT22;447;51.332;6.778;2023-05-14T12:59:25;21.40;91.30
921;DHT22;447;51.332;6.778;2023-05-14T13:01:51;21.40;91.10
921;DHT22;447;51.332;6.778;2023-05-14T13:04:17;21.40;90.90
921;DHT22;447;51.332;6.778;2023-05-14T13:06:43;21.40;90.80
921;DHT22;447;51.332;6.778;2023-05-14T13:09:08;21.50;90.80
921;DHT22;447;51.332;6.778;2023-05-14T13:11:34;21.50;90.70
921;DHT22;447;51.332;6.778;2023-05-14T13:14:01;21.50;90.70
921;DHT22;447;51.332;6.778;2023-05-14T13:16:28;21.60;90.60
921;DHT22;447;51.332;6.778;2023-05-14T13:18:54;21.60;90.60
921;DHT22;447;51.332;6.778;2023-05-14T13:21:20;21.60;90.50
921;DHT22;447;51.332;6.778;2023-05-14T13:23:47;21.60;90.50
921;DHT22;447;51.332;6.778;2023-05-14T13:26:15;21.70;90.60
921;DHT22;447;51.332;6.778;2023-05-14T13:28:41;21.70;90.50
921;DHT22;447;51.332;6.778;2023-05-14T13:31:12;21.70;90.40
921;DHT22;447;51.332;6.778;2023-05-14T13:33:40;21.80;90.30
921;DHT22;447;51.332;6.778;2023-05-14T13:36:07;21.80;90.40
921;DHT22;447;51.332;6.778;2023-05-14T13:38:34;21.80;90.30
921;DHT22;447;51.332;6.778;2023-05-14T13:41:00;21.80;90.30
921;DHT22;447;51.332;6.778;2023-05-14T13:43:33;21.90;90.20
921;DHT22;447;51.332;6.778;2023-05-14T13:45:59;21.90;90.10
921;DHT22;447;51.332;6.778;2023-05-14T13:48:26;21.90;90.10
921;DHT22;447;51.332;6.778;2023-05-14T13:50:52;21.90;90.00
921;DHT22;447;51.332;6.778;2023-05-14T13:53:19;22.00;89.80
921;DHT22;447;51.332;6.778;2023-05-14T13:55:46;22.00;89.80
921;DHT22;447;51.332;6.778;2023-05-14T13:58:12;22.00;89.90
921;DHT22;447;51.332;6.778;2023-05-14T14:00:38;22.00;89.90
921;DHT22;447;51.332;6.778;2023-05-14T14:03:05;22.00;89.70
921;DHT22;447;51.332;6.778;2023-05-14T14:05:34;22.10;89.70
921;DHT22;447;51.332;6.778;2023-05-14T14:08:00;22.10;89.50
921;DHT22;447;51.332;6.778;2023-05-14T14:10:27;22.20;89.60
921;DHT22;447;51.332;6.778;2023-05-14T14:12:53;22.20;89.70
921;DHT22;447;51.332;6.778;2023-05-14T14:15:19;22.20;89.60
921;DHT22;447;51.332;6.778;2023-05-14T14:17:45;22.20;89.70
921;DHT22;447;51.332;6.778;2023-05-14T14:20:11;22.30;89.70
921;DHT22;447;51.332;6.778;2023-05-14T14:22:37;22.30;89.60
921;DHT22;447;51.332;6.778;2023-05-14T14:25:04;22.30;89.40
921;DHT22;447;51.332;6.778;2023-05-14T14:27:31;22.40;89.60
921;DHT22;447;51.332;6.778;2023-05-14T14:29:59;22.40;89.50
921;DHT22;447;51.332;6.778;2023-05-14T14:32:25;22.40;89.40
921;DHT22;447;51.332;6.778;2023-05-14T14:34:51;22.40;89.50
921;DHT22;447;51.332;6.778;2023-05-14T14:37:17;22.50;89.50
921;DHT22;447;51.332;6.778;2023-05-14T14:39:43;22.50;89.20
921;DHT22;447;51.332;6.778;2023-05-14T14:42:09;22.50;88.90
921;DHT22;447;51.332;6.778;2023-05-14T14:44:35;22.60;89.10
921;DHT22;447;51.332;6.778;2023-05-14T14:47:00;22.60;90.00
921;DHT22;447;51.332;6.778;2023-05-14T14:49:26;22.60;89.30
921;DHT22;447;51.332;6.778;2023-05-14T14:51:53;22.60;89.30
921;DHT22;447;51.332;6.778;2023-05-14T14:54:19;22.70;90.00
921;DHT22;447;51.332;6.778;2023-05-14T14:56:45;22.70;89.30
921;DHT22;447;51.332;6.778;2023-05-14T14:59:12;22.70;88.50
921;DHT22;447;51.332;6.778;2023-05-14T15:01:38;22.80;88.00
921;DHT22;447;51.332;6.778;2023-05-14T15:04:04;22.80;87.50
921;DHT22;447;51.332;6.778;2023-05-14T15:06:30;22.80;87.80
921;DHT22;447;51.332;6.778;2023-05-14T15:08:56;22.80;87.70
921;DHT22;447;51.332;6.778;2023-05-14T15:11:23;22.80;87.60
921;DHT22;447;51.332;6.778;2023-05-14T15:13:49;22.90;87.70
921;DHT22;447;51.332;6.778;2023-05-14T15:16:15;22.90;87.60
921;DHT22;447;51.332;6.778;2023-05-14T15:18:41;22.90;87.50
921;DHT22;447;51.332;6.778;2023-05-14T15:21:07;22.90;87.20
921;DHT22;447;51.332;6.778;2023-05-14T15:23:33;22.90;87.00
921;DHT22;447;51.332;6.778;2023-05-14T15:25:59;23.00;87.30
921;DHT22;447;51.332;6.778;2023-05-14T15:28:25;23.00;87.40
921;DHT22;447;51.332;6.778;2023-05-14T15:30:51;23.00;87.30
921;DHT22;447;51.332;6.778;2023-05-14T15:33:17;23.00;87.20
921;DHT22;447;51.332;6.778;2023-05-14T15:35:44;23.00;87.10
921;DHT22;447;51.332;6.778;2023-05-14T15:38:10;23.10;87.30
921;DHT22;447;51.332;6.778;2023-05-14T15:40:36;23.00;87.30
921;DHT22;447;51.332;6.778;2023-05-14T15:43:02;23.10;87.30
921;DHT22;447;51.332;6.778;2023-05-14T15:45:28;23.10;87.30
921;DHT22;447;51.332;6.778;2023-05-14T15:47:55;23.10;87.70
921;DHT22;447;51.332;6.778;2023-05-14T15:50:21;23.10;87.30
921;DHT22;447;51.332;6.778;2023-05-14T15:52:47;23.10;87.30
921;DHT22;447;51.332;6.778;2023-05-14T15:55:13;23.10;87.30
921;DHT22;447;51.332;6.778;2023-05-14T15:57:39;23.10;87.00
921;DHT22;447;51.332;6.778;2023-05-14T16:00:06;23.10;87.10
921;DHT22;447;51.332;6.778;2023-05-14T16:02:38;23.10;87.30
921;DHT22;447;51.332;6.778;2023-05-14T16:05:05;23.10;87.40
921;DHT22;447;51.332;6.778;2023-05-14T16:07:32;23.10;87.70
921;DHT22;447;51.332;6.778;2023-05-14T16:09:58;23.10;87.70
921;DHT22;447;51.332;6.778;2023-05-14T16:12:24;23.10;87.90
921;DHT22;447;51.332;6.778;2023-05-14T16:14:50;23.10;88.20
921;DHT22;447;51.332;6.778;2023-05-14T16:17:16;23.10;88.40
921;DHT22;447;51.332;6.778;2023-05-14T16:19:45;23.10;88.50
921;DHT22;447;51.332;6.778;2023-05-14T16:22:11;23.20;88.50
921;DHT22;447;51.332;6.778;2023-05-14T16:24:37;23.10;88.60
921;DHT22;447;51.332;6.778;2023-05-14T16:27:03;23.20;88.90
921;DHT22;447;51.332;6.778;2023-05-14T16:29:29;23.10;89.00
921;DHT22;447;51.332;6.778;2023-05-14T16:31:55;23.10;89.30
921;DHT22;447;51.332;6.778;2023-05-14T16:34:23;23.10;89.30
921;DHT22;447;51.332;6.778;2023-05-14T16:36:48;23.10;89.30
921;DHT22;447;51.332;6.778;2023-05-14T16:39:14;23.10;89.40
921;DHT22;447;51.332;6.778;2023-05-14T16:41:44;23.10;90.00
921;DHT22;447;51.332;6.778;2023-05-14T16:44:10;23.10;89.20
921;DHT22;447;51.332;6.778;2023-05-14T16:46:36;23.10;89.20
921;DHT22;447;51.332;6.778;2023-05-14T16:49:02;23.10;89.00
921;DHT22;447;51.332;6.778;2023-05-14T16:51:27;23.20;89.10
921;DHT22;447;51.332;6.778;2023-05-14T16:53:53;23.20;89.10
921;DHT22;447;51.332;6.778;2023-05-14T16:56:19;23.10;89.00